createdAt,value
2023-01-07T00:04:32.973Z,0.04
2023-01-07T00:09:34.331Z,0.04
2023-01-07T00:14:31.189Z,0.05
2023-01-07T00:19:31.626Z,0.05
2023-01-07T00:24:32.813Z,0.04
2023-01-07T00:29:30.036Z,0.05
2023-01-07T00:34:19.339Z,0.05
2023-01-07T00:39:18.901Z,0.05
2023-01-07T00:44:17.969Z,0.04
2023-01-07T00:49:17.822Z,0.05
2023-01-07T00:54:17.491Z,0.05
2023-01-07T00:59:04.325Z,0.04
2023-01-07T01:04:02.896Z,0.05
2023-01-07T01:09:03.470Z,0.05
2023-01-07T01:14:02.170Z,0.05
2023-01-07T01:19:02.972Z,0.05
2023-01-07T01:23:59.181Z,0.04
2023-01-07T01:28:59.537Z,0.04
2023-01-07T01:33:58.366Z,0.04
2023-01-07T01:38:58.609Z,0.04
2023-01-07T01:43:55.722Z,0.04
2023-01-07T01:48:55.697Z,0.05
2023-01-07T01:53:55.097Z,0.04
2023-01-07T01:58:56.140Z,0.05
2023-01-07T02:03:52.651Z,0.04
2023-01-07T02:08:54.033Z,0.04
2023-01-07T02:13:53.444Z,0.05
2023-01-07T02:18:52.645Z,0.04
2023-01-07T02:23:49.329Z,0.04
2023-01-07T02:28:49.167Z,0.05
2023-01-07T02:33:49.244Z,0.05
2023-01-07T02:38:49.117Z,0.04
2023-01-07T02:43:48.241Z,0.04
2023-01-07T02:48:47.860Z,0.05
2023-01-07T02:53:48.382Z,0.04
2023-01-07T02:58:47.304Z,0.05
2023-01-07T03:03:47.553Z,0.05
2023-01-07T03:08:46.910Z,0.05
2023-01-07T03:13:46.628Z,0.05
2023-01-07T03:18:44.043Z,0.04
2023-01-07T03:23:44.316Z,0.04
2023-01-07T03:28:44.104Z,0.05
2023-01-07T03:33:43.761Z,0.04
2023-01-07T03:38:42.793Z,0.05
2023-01-07T03:43:42.724Z,0.04
2023-01-07T03:48:43.113Z,0.05
2023-01-07T03:53:42.244Z,0.05
2023-01-07T03:58:43.697Z,0.05
2023-01-07T04:03:39.447Z,0.04
2023-01-07T04:08:39.552Z,0.05
2023-01-07T04:13:38.795Z,0.05
2023-01-07T04:18:38.418Z,0.05
2023-01-07T04:23:35.578Z,0.04
2023-01-07T04:28:35.629Z,0.05
2023-01-07T04:33:35.914Z,0.05
2023-01-07T04:38:37.092Z,0.05
2023-01-07T04:43:34.758Z,0.04
2023-01-07T04:48:35.343Z,0.05
2023-01-07T04:53:36.205Z,0.05
2023-01-07T04:58:32.025Z,0.05
2023-01-07T04:59:53.639Z,0.05
2023-01-07T05:04:53.209Z,0.04
2023-01-07T05:09:52.662Z,0.04
2023-01-07T05:14:49.916Z,0.04
2023-01-07T05:19:49.495Z,0.05
2023-01-07T05:24:50.044Z,0.05
2023-01-07T05:29:49.380Z,0.05
2023-01-07T05:34:48.891Z,0.04
2023-01-07T05:39:48.272Z,0.05
2023-01-07T05:44:48.440Z,0.04
2023-01-07T05:49:47.627Z,0.04
2023-01-07T05:54:48.822Z,0.04
2023-01-07T05:58:51.465Z,0.04
2023-01-07T06:03:52.140Z,0.04
2023-01-07T06:08:50.367Z,0.04
2023-01-07T06:13:50.918Z,0.05
2023-01-07T06:18:49.215Z,0.05
2023-01-07T06:23:49.780Z,0.04
2023-01-07T06:28:49.756Z,0.05
2023-01-07T06:33:47.679Z,0.05
2023-01-07T06:38:46.520Z,0.04
2023-01-07T06:43:47.374Z,0.05
2023-01-07T06:48:46.389Z,0.05
2023-01-07T06:53:45.639Z,0.05
2023-01-07T06:58:33.343Z,0.05
2023-01-07T07:03:33.001Z,0.05
2023-01-07T07:08:32.145Z,0.06
2023-01-07T07:13:33.333Z,0.08
2023-01-07T07:18:29.131Z,0.1
2023-01-07T07:23:29.143Z,0.13
2023-01-07T07:28:28.229Z,0.17
2023-01-07T07:33:28.363Z,0.22
2023-01-07T07:38:36.168Z,0.29
2023-01-07T07:43:25.839Z,0.27
2023-01-07T07:48:35.784Z,0.32
2023-01-07T07:53:31.596Z,0.37
2023-01-07T07:58:33.778Z,0.39
2023-01-07T07:59:56.564Z,0.4
2023-01-07T08:04:54.417Z,0.44
2023-01-07T08:09:54.063Z,0.48
2023-01-07T08:14:55.629Z,0.52
2023-01-07T08:19:52.147Z,0.6
2023-01-07T08:24:52.353Z,0.66
2023-01-07T08:29:51.316Z,0.67
2023-01-07T08:34:51.241Z,0.72
2023-01-07T08:39:48.714Z,0.83
2023-01-07T08:44:48.270Z,0.89
2023-01-07T08:49:48.560Z,1.03
2023-01-07T08:54:49.994Z,1.02
2023-01-07T08:58:56.558Z,1.04
2023-01-07T09:03:56.199Z,1.15
2023-01-07T09:08:56.099Z,1.22
2023-01-07T09:13:55.945Z,1.25
2023-01-07T09:18:53.583Z,1.3
2023-01-07T09:23:53.734Z,1.28
2023-01-07T09:28:54.200Z,1.43
2023-01-07T09:33:53.225Z,1.52
2023-01-07T09:38:53.629Z,1.58
2023-01-07T09:44:06.279Z,1.82
2023-01-07T09:48:52.643Z,1.94
2023-01-07T09:53:52.957Z,2.62
2023-01-07T09:58:50.074Z,2.63
2023-01-07T10:03:50.048Z,3.25
2023-01-07T10:08:50.116Z,3.84
2023-01-07T10:13:49.639Z,4.35
2023-01-07T10:18:48.712Z,4.72
2023-01-07T10:23:49.222Z,5.56
2023-01-07T10:28:48.721Z,6.19
2023-01-07T10:33:48.867Z,5.19
2023-01-07T10:38:50.448Z,4.99
2023-01-07T10:43:46.915Z,4.87
2023-01-07T10:48:46.275Z,4.86
2023-01-07T10:53:46.274Z,5.24
2023-01-07T10:58:45.859Z,5.44
2023-01-07T11:00:06.372Z,5.52
2023-01-07T11:05:06.687Z,5.77
2023-01-07T11:10:05.646Z,6.03
2023-01-07T11:15:07.321Z,6.31
2023-01-07T11:20:03.777Z,6.63
2023-01-07T11:25:03.270Z,6.77
2023-01-07T11:30:03.796Z,7.08
2023-01-07T11:35:02.429Z,6.81
2023-01-07T11:40:03.492Z,8.3
2023-01-07T11:45:02.086Z,7.58
2023-01-07T11:50:02.497Z,7.17
2023-01-07T11:55:00.571Z,8.64
2023-01-07T11:59:30.348Z,7.6
2023-01-07T12:04:30.778Z,7.75
2023-01-07T12:09:33.237Z,8.34
2023-01-07T12:14:29.774Z,8.28
2023-01-07T12:19:30.597Z,8.24
2023-01-07T12:24:19.120Z,7.86
2023-01-07T12:29:19.279Z,7.66
2023-01-07T12:34:18.927Z,7.47
2023-01-07T12:39:18.893Z,7.25
2023-01-07T12:44:19.751Z,7.11
2023-01-07T12:49:16.091Z,6.99
2023-01-07T12:54:16.076Z,6.8
2023-01-07T12:59:04.634Z,6.63
2023-01-07T13:04:04.485Z,6.4
2023-01-07T13:09:02.530Z,6.2
2023-01-07T13:14:02.441Z,6
2023-01-07T13:19:02.259Z,5.8
2023-01-07T13:23:59.391Z,5.57
2023-01-07T13:28:58.965Z,5.4
2023-01-07T13:33:58.281Z,5.21
2023-01-07T13:38:57.738Z,4.99
2023-01-07T13:43:57.104Z,4.74
2023-01-07T13:48:57.504Z,4.53
2023-01-07T13:53:56.290Z,4.3
2023-01-07T13:58:55.989Z,4.03
2023-01-07T14:03:53.727Z,3.81
2023-01-07T14:08:52.989Z,3.61
2023-01-07T14:13:53.110Z,3.39
2023-01-07T14:18:52.468Z,3.18
2023-01-07T14:23:51.552Z,2.96
2023-01-07T14:28:51.501Z,2.68
2023-01-07T14:33:51.550Z,2.47
2023-01-07T14:38:51.031Z,2.28
2023-01-07T14:43:52.468Z,2.09
2023-01-07T14:48:48.648Z,1.89
2023-01-07T14:53:48.790Z,1.71
2023-01-07T14:58:49.603Z,1.52
2023-01-07T15:03:45.766Z,1.34
2023-01-07T15:08:45.778Z,1.16
2023-01-07T15:13:45.021Z,0.99
2023-01-07T15:18:44.541Z,0.83
2023-01-07T15:23:44.553Z,0.68
2023-01-07T15:28:44.050Z,0.54
2023-01-07T15:33:43.622Z,0.42
2023-01-07T15:38:44.209Z,0.32
2023-01-07T15:43:40.284Z,0.29
2023-01-07T15:48:40.094Z,0.23
2023-01-07T15:53:39.770Z,0.15
2023-01-07T15:58:39.326Z,0.1
2023-01-07T16:03:36.733Z,0.07
2023-01-07T16:08:36.123Z,0.06
2023-01-07T16:13:38.407Z,0.05
2023-01-07T16:18:35.973Z,0.05
2023-01-07T16:23:35.210Z,0.05
2023-01-07T16:28:34.655Z,0.05
2023-01-07T16:33:35.392Z,0.05
2023-01-07T16:38:34.664Z,0.05
2023-01-07T16:43:33.687Z,0.05
2023-01-07T16:48:33.089Z,0.05
2023-01-07T16:53:33.287Z,0.05
2023-01-07T16:58:30.195Z,0.05
2023-01-07T16:59:54.174Z,0.05
2023-01-07T17:04:51.592Z,0.05
2023-01-07T17:09:51.111Z,0.05
2023-01-07T17:14:50.105Z,0.05
2023-01-07T17:19:49.415Z,0.05
2023-01-07T17:24:49.836Z,0.05
2023-01-07T17:29:48.964Z,0.05
2023-01-07T17:34:50.068Z,0.05
2023-01-07T17:39:46.239Z,0.05
2023-01-07T17:44:46.672Z,0.05
2023-01-07T17:49:45.708Z,0.05
2023-01-07T17:54:45.159Z,0.05
2023-01-07T17:58:53.945Z,0.05
2023-01-07T18:03:51.973Z,0.05
2023-01-07T18:08:52.059Z,0.05
2023-01-07T18:13:52.104Z,0.05
2023-01-07T18:18:50.577Z,0.05
2023-01-07T18:23:50.199Z,0.05
2023-01-07T18:28:49.637Z,0.05
2023-01-07T18:33:48.413Z,0.04
2023-01-07T18:38:48.469Z,0.05
2023-01-07T18:43:47.941Z,0.05
2023-01-07T18:48:47.659Z,0.05
2023-01-07T18:53:48.803Z,0.05
2023-01-07T18:58:31.404Z,0.05
2023-01-07T19:03:32.039Z,0.05
2023-01-07T19:08:30.347Z,0.05
2023-01-07T19:13:30.346Z,0.05
2023-01-07T19:18:27.486Z,0.05
2023-01-07T19:23:27.427Z,0.05
2023-01-07T19:28:27.588Z,0.05
2023-01-07T19:33:27.825Z,0.05
2023-01-07T19:38:27.157Z,0.05
2023-01-07T19:43:26.496Z,0.05
2023-01-07T19:48:26.259Z,0.05
2023-01-07T19:53:27.044Z,0.05
2023-01-07T19:58:34.744Z,0.05
2023-01-07T20:03:35.898Z,0.05
2023-01-07T20:08:34.755Z,0.05
2023-01-07T20:13:35.125Z,0.05
2023-01-07T20:18:34.660Z,0.05
2023-01-07T20:23:36.682Z,0.05
2023-01-07T20:28:33.595Z,0.05
2023-01-07T20:33:33.213Z,0.05
2023-01-07T20:38:34.178Z,0.05
2023-01-07T20:43:31.774Z,0.05
2023-01-07T20:48:31.217Z,0.05
2023-01-07T20:53:32.239Z,0.05
2023-01-07T20:58:18.487Z,0.05
2023-01-07T20:59:39.756Z,0.04
2023-01-07T21:04:38.699Z,0.05
2023-01-07T21:09:38.946Z,0.04
2023-01-07T21:14:37.920Z,0.05
2023-01-07T21:19:37.620Z,0.05
2023-01-07T21:24:36.640Z,0.05
2023-01-07T21:29:36.558Z,0.05
2023-01-07T21:34:33.821Z,0.04
2023-01-07T21:39:33.935Z,0.05
2023-01-07T21:44:33.996Z,0.05
2023-01-07T21:49:32.634Z,0.05
2023-01-07T21:54:32.248Z,0.05
2023-01-07T21:59:05.305Z,0.05
2023-01-07T22:04:05.331Z,0.05
2023-01-07T22:09:04.014Z,0.04
2023-01-07T22:14:03.218Z,0.05
2023-01-07T22:19:03.051Z,0.05
2023-01-07T22:24:02.895Z,0.05
2023-01-07T22:29:05.594Z,0.05
2023-01-07T22:34:00.243Z,0.04
2023-01-07T22:39:00.361Z,0.05
2023-01-07T22:43:59.740Z,0.04
2023-01-07T22:48:59.343Z,0.05
2023-01-07T22:53:58.800Z,0.05
2023-01-07T22:58:59.139Z,0.05
2023-01-07T23:03:59.183Z,0.05
2023-01-07T23:08:59.844Z,0.05
2023-01-07T23:13:56.030Z,0.04
2023-01-07T23:18:56.141Z,0.05
2023-01-07T23:23:55.480Z,0.04
2023-01-07T23:28:54.761Z,0.04
2023-01-07T23:33:54.615Z,0.05
2023-01-07T23:38:54.016Z,0.05
2023-01-07T23:43:54.010Z,0.05
2023-01-07T23:48:51.526Z,0.04
2023-01-07T23:53:51.031Z,0.05
2023-01-07T23:58:50.327Z,0.05
